Time;durP1;ratioP1;P1;durP2;ratioP2;P2;SDS_P1;SDS_P2;PMS_P1;PMS_P2;Temp;Humidity;BMP_temperature;BMP_pressure;BME280_temperature;BME280_humidity;BME280_pressure;Samples;Min_cycle;Max_cycle;Signal;HPM_P1;HPM_P2
2022/03/30 00:00:45;;;;;;;41.90;24.02;;;10.90;75.60;;;;;;5037756;28;20025;-49
2022/03/30 00:03:12;;;;;;;39.50;22.05;;;10.90;76.90;;;;;;5037856;28;20108;-47
2022/03/30 00:05:41;;;;;;;36.65;21.27;;;10.80;77.70;;;;;;5037655;28;20097;-49
2022/03/30 00:08:07;;;;;;;44.60;25.02;;;10.80;77.10;;;;;;5037720;28;20474;-47
2022/03/30 00:10:33;;;;;;;39.40;23.75;;;10.80;76.60;;;;;;5037580;28;20029;-49
2022/03/30 00:13:00;;;;;;;42.38;23.00;;;10.70;78.30;;;;;;5037583;28;20079;-52
2022/03/30 00:15:27;;;;;;;37.47;22.17;;;10.70;78.40;;;;;;5037958;28;20100;-46
2022/03/30 00:17:52;;;;;;;38.15;22.73;;;10.70;77.90;;;;;;5037332;28;20030;-46
2022/03/30 00:20:19;;;;;;;43.35;24.27;;;10.70;77.40;;;;;;5037495;28;20040;-47
2022/03/30 00:22:45;;;;;;;36.08;22.75;;;10.60;77.40;;;;;;5037651;28;20488;-48
2022/03/30 00:25:12;;;;;;;36.75;21.98;;;10.60;78.00;;;;;;5037575;28;20041;-49
2022/03/30 00:27:43;;;;;;;36.97;22.25;;;10.60;78.10;;;;;;5037680;28;20026;-49
2022/03/30 00:30:13;;;;;;;46.55;25.55;;;10.60;77.00;;;;;;5037429;28;20073;-47
2022/03/30 00:32:39;;;;;;;38.35;23.52;;;10.50;76.80;;;;;;5037836;28;20022;-46
2022/03/30 00:35:07;;;;;;;39.17;23.40;;;10.50;77.90;;;;;;5037545;28;20036;-49
2022/03/30 00:37:34;;;;;;;40.33;23.42;;;10.50;78.10;;;;;;5037187;28;20036;-47
2022/03/30 00:40:00;;;;;;;41.58;24.85;;;10.50;77.20;;;;;;5037388;28;20029;-47
2022/03/30 00:42:26;;;;;;;39.85;22.17;;;10.40;77.00;;;;;;5037391;28;20026;-49
2022/03/30 00:44:53;;;;;;;41.33;23.33;;;10.40;78.70;;;;;;5037209;28;20385;-50
2022/03/30 00:47:24;;;;;;;34.72;22.60;;;10.40;77.90;;;;;;5037605;28;20507;-46
2022/03/30 00:49:51;;;;;;;42.63;22.30;;;10.50;78.50;;;;;;5037297;28;20053;-47
2022/03/30 00:52:17;;;;;;;44.28;25.98;;;10.50;78.40;;;;;;5037436;28;20018;-46
2022/03/30 00:54:45;;;;;;;38.88;24.13;;;10.50;78.80;;;;;;5037476;28;20487;-48
2022/03/30 00:57:14;;;;;;;35.85;21.92;;;10.60;78.60;;;;;;5037389;28;20075;-49
2022/03/30 00:59:41;;;;;;;41.85;23.65;;;10.60;78.60;;;;;;5037125;28;20029;-48
2022/03/30 01:02:08;;;;;;;39.03;22.02;;;10.60;79.70;;;;;;5037144;28;20021;-48
2022/03/30 01:04:34;;;;;;;39.80;22.00;;;10.60;79.30;;;;;;5037058;28;20021;-47
2022/03/30 01:07:00;;;;;;;36.95;22.42;;;10.60;79.60;;;;;;5039453;28;20143;-48
2022/03/30 01:09:26;;;;;;;42.20;22.65;;;10.60;80.60;;;;;;5041054;28;20025;-46
2022/03/30 01:11:56;;;;;;;47.53;24.75;;;10.60;79.80;;;;;;5041188;28;20092;-47
2022/03/30 01:14:25;;;;;;;41.30;23.55;;;10.70;78.00;;;;;;5039485;28;20055;-45
2022/03/30 01:16:52;;;;;;;38.50;22.98;;;10.70;78.20;;;;;;5041067;28;20100;-52
2022/03/30 01:19:17;;;;;;;39.17;22.23;;;10.70;78.30;;;;;;5040640;28;20038;-47
2022/03/30 01:21:45;;;;;;;36.92;22.73;;;10.70;77.80;;;;;;5040778;28;20079;-46
2022/03/30 01:24:12;;;;;;;43.25;24.15;;;10.70;78.30;;;;;;5040567;28;20029;-46
2022/03/30 01:26:38;;;;;;;42.55;23.45;;;10.70;78.30;;;;;;5040346;28;20149;-47
2022/03/30 01:32:25;;;;;;;38.67;22.25;;;10.70;77.80;;;;;;5040507;28;20485;-47
2022/03/30 01:34:36;;;;;;;41.78;22.27;;;10.50;78.20;;;;;;5040520;28;20519;-47
2022/03/30 01:37:03;;;;;;;42.95;23.80;;;10.50;78.00;;;;;;5040471;28;20029;-47
2022/03/30 01:39:29;;;;;;;37.58;21.80;;;10.40;77.20;;;;;;5040599;28;20100;-48
2022/03/30 01:41:55;;;;;;;39.28;22.02;;;10.40;77.80;;;;;;5040290;28;20416;-48
2022/03/30 01:44:21;;;;;;;36.90;20.45;;;10.40;78.50;;;;;;5040305;28;20025;-47
2022/03/30 01:46:47;;;;;;;37.65;21.77;;;10.40;79.20;;;;;;5040261;28;20057;-46
2022/03/30 01:49:13;;;;;;;37.80;20.02;;;10.30;79.80;;;;;;5040393;28;20077;-48
2022/03/30 01:51:38;;;;;;;34.08;21.42;;;10.30;80.00;;;;;;5040429;28;20025;-45
2022/03/30 01:54:05;;;;;;;39.97;20.92;;;10.40;80.90;;;;;;5040095;28;20109;-46
2022/03/30 01:56:30;;;;;;;35.08;21.83;;;10.50;80.70;;;;;;5040319;28;20026;-46
2022/03/30 01:58:56;;;;;;;40.03;20.95;;;10.50;79.60;;;;;;5040020;28;20082;-46
2022/03/30 02:01:22;;;;;;;36.47;20.85;;;10.60;79.40;;;;;;5040166;28;20029;-46
2022/03/30 02:03:48;;;;;;;36.38;21.88;;;10.60;80.60;;;;;;5039811;28;20083;-48
2022/03/30 02:06:15;;;;;;;38.20;20.25;;;10.70;78.70;;;;;;5039887;28;20029;-46
2022/03/30 02:08:42;;;;;;;36.55;20.67;;;10.70;79.60;;;;;;5040271;28;20014;-48
2022/03/30 02:11:07;;;;;;;35.72;20.30;;;10.80;78.60;;;;;;5040017;28;20030;-50
2022/03/30 02:13:33;;;;;;;36.13;19.77;;;10.90;78.70;;;;;;5040232;28;20495;-46
2022/03/30 02:15:59;;;;;;;38.40;21.38;;;10.90;79.60;;;;;;5040072;28;20025;-48
2022/03/30 02:18:25;;;;;;;35.13;20.08;;;10.90;80.00;;;;;;5038954;28;20075;-48
2022/03/30 02:20:52;;;;;;;40.05;20.75;;;10.90;78.70;;;;;;5039713;28;20108;-49
2022/03/30 02:23:18;;;;;;;37.28;21.33;;;10.90;79.40;;;;;;5039412;28;20601;-46
2022/03/30 02:25:44;;;;;;;41.58;21.33;;;10.90;80.30;;;;;;5039387;28;20057;-48
2022/03/30 02:28:10;;;;;;;40.47;21.60;;;11.00;78.80;;;;;;5039730;28;20545;-47
2022/03/30 02:30:36;;;;;;;37.25;21.10;;;11.00;79.20;;;;;;5039840;28;20017;-45
2022/03/30 02:33:02;;;;;;;37.88;20.60;;;11.00;78.90;;;;;;5039840;28;20077;-46
2022/03/30 02:35:28;;;;;;;40.80;21.90;;;11.00;79.50;;;;;;5039467;28;20025;-46
2022/03/30 02:37:56;;;;;;;35.22;20.67;;;11.10;77.60;;;;;;5039552;28;20025;-46
2022/03/30 02:40:22;;;;;;;36.25;20.23;;;11.10;78.30;;;;;;5039372;28;20026;-48
2022/03/30 02:42:48;;;;;;;39.13;20.67;;;11.10;78.50;;;;;;5039530;28;20038;-46
2022/03/30 02:45:14;;;;;;;39.33;20.52;;;11.20;80.60;;;;;;5039216;28;20021;-46
2022/03/30 02:50:25;;;;;;;37.13;20.27;;;11.20;80.10;;;;;;5039343;28;20032;-46
2022/03/30 02:52:50;;;;;;;36.00;20.35;;;11.30;79.50;;;;;;5039034;28;20026;-47
2022/03/30 02:55:16;;;;;;;39.97;19.55;;;11.30;80.00;;;;;;5038811;28;20481;-46
2022/03/30 02:57:42;;;;;;;37.70;20.67;;;11.30;78.90;;;;;;5038949;28;20029;-48
2022/03/30 03:00:09;;;;;;;36.28;20.25;;;11.30;79.60;;;;;;5039050;28;20079;-48
2022/03/30 03:02:34;;;;;;;38.80;20.20;;;11.30;79.60;;;;;;5038782;28;20472;-49
2022/03/30 03:05:01;;;;;;;38.22;19.65;;;11.30;78.30;;;;;;5039146;28;20017;-46
2022/03/30 03:07:28;;;;;;;38.65;20.10;;;11.30;79.50;;;;;;5038831;28;20036;-48
2022/03/30 03:09:54;;;;;;;38.20;22.33;;;11.40;78.70;;;;;;5038738;28;20018;-46
2022/03/30 03:12:20;;;;;;;37.85;20.05;;;11.40;78.90;;;;;;5038678;28;20032;-46
2022/03/30 03:14:45;;;;;;;39.25;20.85;;;11.40;78.90;;;;;;5038628;28;20025;-47
2022/03/30 03:17:11;;;;;;;38.78;21.50;;;11.40;79.30;;;;;;5038768;28;20025;-48
2022/03/30 03:19:37;;;;;;;33.42;20.25;;;11.40;79.70;;;;;;5038501;28;20096;-49
2022/03/30 03:22:04;;;;;;;43.33;21.30;;;11.40;80.00;;;;;;5037518;28;20040;-48
2022/03/30 03:24:30;;;;;;;42.10;21.73;;;11.40;78.30;;;;;;5038299;28;20029;-47
2022/03/30 03:26:56;;;;;;;43.83;23.33;;;11.40;80.20;;;;;;5038406;28;20025;-50
2022/03/30 03:29:22;;;;;;;42.30;22.75;;;11.40;79.10;;;;;;5037643;28;20025;-47
2022/03/30 03:31:48;;;;;;;42.58;21.73;;;11.40;77.70;;;;;;5038038;28;20029;-46
2022/03/30 03:34:13;;;;;;;41.08;21.67;;;11.30;79.30;;;;;;5038264;28;20490;-46
2022/03/30 03:36:39;;;;;;;43.70;22.65;;;11.20;79.40;;;;;;5038384;28;20057;-49
2022/03/30 03:39:05;;;;;;;45.28;23.35;;;11.10;80.20;;;;;;5038128;28;20022;-50
2022/03/30 03:41:31;;;;;;;38.75;21.67;;;11.00;79.00;;;;;;5038471;28;20021;-47
2022/03/30 03:43:56;;;;;;;38.67;22.33;;;11.00;79.80;;;;;;5038189;28;20025;-46
2022/03/30 03:46:22;;;;;;;47.75;22.92;;;11.00;80.40;;;;;;5038162;28;20462;-46
2022/03/30 03:48:48;;;;;;;43.03;22.70;;;10.90;80.20;;;;;;5037964;28;20028;-47
2022/03/30 03:51:14;;;;;;;44.95;23.00;;;10.80;79.50;;;;;;5038141;28;20066;-46
2022/03/30 03:53:40;;;;;;;48.60;23.20;;;10.80;80.40;;;;;;5037873;28;20026;-47
2022/03/30 03:56:06;;;;;;;48.58;22.95;;;10.70;79.40;;;;;;5038037;28;20488;-46
2022/03/30 03:58:32;;;;;;;44.50;21.45;;;10.70;80.10;;;;;;5037816;28;20033;-49
2022/03/30 04:00:58;;;;;;;44.97;24.50;;;10.70;79.80;;;;;;5036707;28;20067;-47
2022/03/30 04:03:24;;;;;;;39.22;20.80;;;10.60;78.90;;;;;;5037563;28;20079;-46
2022/03/30 04:05:50;;;;;;;42.85;22.35;;;10.50;79.30;;;;;;5037723;28;20025;-46
2022/03/30 04:08:16;;;;;;;41.15;21.70;;;10.50;79.10;;;;;;5037691;28;20511;-47
2022/03/30 04:10:42;;;;;;;41.00;19.92;;;10.40;79.30;;;;;;5036278;28;20018;-49
2022/03/30 04:13:09;;;;;;;41.85;21.25;;;10.40;79.20;;;;;;5037835;28;20052;-47
2022/03/30 04:15:37;;;;;;;40.33;20.30;;;10.30;78.90;;;;;;5037902;28;20013;-49
2022/03/30 04:18:04;;;;;;;42.75;21.35;;;10.20;78.90;;;;;;5037585;28;20021;-46
2022/03/30 04:20:31;;;;;;;44.15;21.52;;;10.20;78.80;;;;;;5037320;28;20021;-48
2022/03/30 04:22:57;;;;;;;41.60;20.00;;;10.20;79.00;;;;;;5037455;28;20029;-46
2022/03/30 04:25:23;;;;;;;39.70;22.15;;;10.10;78.80;;;;;;5037363;28;20072;-46
2022/03/30 04:27:51;;;;;;;37.83;20.85;;;10.10;78.80;;;;;;5037650;28;20053;-46
2022/03/30 04:30:18;;;;;;;37.55;19.75;;;10.00;78.90;;;;;;5037437;28;20021;-47
2022/03/30 04:32:45;;;;;;;43.95;21.20;;;10.00;79.00;;;;;;5037606;28;20064;-47
2022/03/30 04:35:12;;;;;;;38.05;20.52;;;9.90;79.00;;;;;;5037385;28;20072;-46
2022/03/30 04:37:39;;;;;;;43.53;21.48;;;9.90;79.40;;;;;;5037591;28;20074;-47
2022/03/30 04:40:07;;;;;;;40.58;21.25;;;9.90;79.00;;;;;;5037460;28;20100;-46
2022/03/30 04:42:33;;;;;;;40.88;21.50;;;9.90;78.70;;;;;;5040794;28;20026;-49
2022/03/30 04:44:59;;;;;;;41.58;20.25;;;9.90;79.60;;;;;;5041388;28;20025;-46
2022/03/30 04:47:24;;;;;;;38.38;20.33;;;9.90;79.30;;;;;;5041639;28;20047;-47
2022/03/30 04:49:50;;;;;;;42.58;22.38;;;9.90;79.30;;;;;;5041185;28;20397;-47
2022/03/30 04:52:18;;;;;;;43.28;22.60;;;9.90;78.30;;;;;;5041388;28;20033;-46
2022/03/30 04:54:44;;;;;;;44.65;24.45;;;9.90;79.20;;;;;;5041277;28;20370;-46
2022/03/30 04:57:10;;;;;;;46.85;23.65;;;9.90;80.00;;;;;;5041280;28;20083;-48
2022/03/30 04:59:36;;;;;;;44.95;24.58;;;9.90;79.00;;;;;;5041377;28;20029;-46
2022/03/30 05:02:01;;;;;;;41.38;22.38;;;9.90;78.50;;;;;;5040325;28;20061;-47
2022/03/30 05:04:29;;;;;;;35.30;19.88;;;9.90;78.40;;;;;;5040965;28;20022;-49
2022/03/30 05:06:55;;;;;;;48.38;23.33;;;9.90;78.30;;;;;;5041307;28;20029;-47
2022/03/30 05:09:21;;;;;;;43.22;22.88;;;9.80;80.40;;;;;;5041018;28;20040;-48
2022/03/30 05:11:47;;;;;;;47.33;26.23;;;9.80;82.20;;;;;;5041043;28;20472;-48
2022/03/30 05:14:12;;;;;;;45.33;24.63;;;9.90;83.30;;;;;;5040995;28;20548;-49
2022/03/30 05:16:38;;;;;;;51.15;23.98;;;10.00;82.00;;;;;;5041092;28;20043;-47
2022/03/30 05:19:04;;;;;;;47.40;25.02;;;10.00;81.50;;;;;;5041170;28;20022;-49
2022/03/30 05:21:30;;;;;;;48.90;23.95;;;10.10;81.60;;;;;;5040772;28;20091;-47
2022/03/30 05:23:56;;;;;;;50.65;25.98;;;10.20;81.20;;;;;;5040512;28;20034;-45
2022/03/30 05:26:22;;;;;;;52.35;27.90;;;10.20;80.00;;;;;;5040384;28;20132;-48
2022/03/30 05:28:47;;;;;;;51.22;27.17;;;10.30;82.10;;;;;;5040853;28;20034;-49
2022/03/30 05:31:13;;;;;;;58.63;29.83;;;10.30;80.30;;;;;;5040775;28;20021;-46
2022/03/30 05:33:39;;;;;;;58.35;28.48;;;10.40;80.20;;;;;;5040749;28;20141;-51
2022/03/30 05:36:07;;;;;;;53.97;28.08;;;10.40;81.50;;;;;;5040760;28;20017;-46
2022/03/30 05:38:34;;;;;;;52.55;27.90;;;10.50;81.70;;;;;;5040873;28;20029;-46
2022/03/30 05:41:00;;;;;;;52.00;27.52;;;10.50;80.90;;;;;;5040598;28;20036;-49
2022/03/30 05:43:25;;;;;;;61.92;35.22;;;10.60;81.60;;;;;;5040311;28;20029;-49
2022/03/30 05:45:51;;;;;;;57.22;30.13;;;10.60;83.00;;;;;;5040588;28;20018;-47
2022/03/30 05:48:17;;;;;;;56.65;30.90;;;10.70;81.40;;;;;;5040514;28;20049;-47
2022/03/30 05:50:45;;;;;;;59.13;30.20;;;10.70;82.40;;;;;;5040330;28;20025;-49
2022/03/30 05:53:13;;;;;;;56.10;29.75;;;10.80;81.90;;;;;;5039318;28;20025;-47
2022/03/30 05:55:38;;;;;;;52.60;28.63;;;10.80;82.10;;;;;;5040248;28;20018;-48
2022/03/30 05:58:05;;;;;;;54.97;28.80;;;10.80;81.40;;;;;;5040108;28;20029;-49
2022/03/30 06:00:31;;;;;;;59.58;29.70;;;10.80;81.20;;;;;;5040148;28;20020;-47
2022/03/30 06:02:57;;;;;;;53.45;29.92;;;10.90;80.70;;;;;;5040172;28;20029;-50
2022/03/30 06:05:23;;;;;;;56.78;30.48;;;10.90;80.50;;;;;;5040461;28;20485;-49
2022/03/30 06:07:49;;;;;;;51.58;28.13;;;10.90;79.40;;;;;;5039986;28;20473;-48
2022/03/30 06:10:16;;;;;;;54.35;29.25;;;10.90;79.60;;;;;;5040126;28;20025;-48
2022/03/30 06:12:42;;;;;;;50.47;27.98;;;10.90;79.40;;;;;;5039773;28;20028;-48
2022/03/30 06:15:09;;;;;;;54.00;29.33;;;10.80;80.00;;;;;;5039586;28;20033;-48
2022/03/30 06:17:35;;;;;;;55.08;29.30;;;10.80;81.40;;;;;;5039935;28;20033;-47
2022/03/30 06:20:03;;;;;;;50.83;30.02;;;10.80;80.50;;;;;;5039394;28;20130;-48
2022/03/30 06:22:30;;;;;;;53.08;28.23;;;10.80;80.50;;;;;;5039704;28;20032;-47
2022/03/30 06:24:56;;;;;;;52.33;28.27;;;10.80;80.40;;;;;;5039414;28;20053;-47
2022/03/30 06:27:22;;;;;;;58.70;29.17;;;10.80;79.50;;;;;;5039567;28;20021;-47
2022/03/30 06:29:48;;;;;;;55.33;29.70;;;10.80;79.20;;;;;;5039701;28;20516;-46
2022/03/30 06:32:14;;;;;;;51.60;25.92;;;10.70;79.20;;;;;;5039674;28;20395;-48
2022/03/30 06:34:40;;;;;;;55.85;27.48;;;10.70;79.40;;;;;;5039554;28;20546;-48
2022/03/30 06:37:05;;;;;;;54.95;27.45;;;10.60;79.30;;;;;;5039351;28;20037;-48
2022/03/30 06:39:34;;;;;;;55.20;26.95;;;10.60;80.30;;;;;;5039517;28;20018;-47
2022/03/30 06:42:00;;;;;;;53.85;27.88;;;10.60;82.10;;;;;;5039521;28;20026;-47
2022/03/30 06:44:26;;;;;;;52.25;25.85;;;10.60;82.20;;;;;;5039116;28;20152;-48
2022/03/30 06:46:52;;;;;;;47.15;26.55;;;10.70;81.40;;;;;;5039011;28;20030;-46
2022/03/30 06:49:18;;;;;;;48.97;26.48;;;10.70;81.80;;;;;;5039406;28;20021;-46
2022/03/30 06:51:44;;;;;;;53.75;29.55;;;10.70;82.00;;;;;;5039158;28;20052;-48
2022/03/30 06:54:10;;;;;;;53.38;28.73;;;10.80;82.10;;;;;;5039271;28;20473;-46
2022/03/30 06:56:36;;;;;;;51.35;28.02;;;10.90;82.00;;;;;;5039568;28;20478;-47
2022/03/30 06:59:01;;;;;;;53.67;28.92;;;10.90;82.00;;;;;;5038933;28;20033;-47
2022/03/30 07:01:27;;;;;;;47.38;28.00;;;11.00;82.80;;;;;;5039382;28;20025;-48
2022/03/30 07:03:53;;;;;;;56.17;29.77;;;11.10;81.80;;;;;;5038824;28;20109;-50
2022/03/30 07:06:19;;;;;;;55.75;29.67;;;11.20;82.50;;;;;;5039032;28;20057;-46
2022/03/30 07:11:29;;;;;;;51.60;28.38;;;11.40;81.50;;;;;;5039120;28;20033;-48
2022/03/30 07:13:57;;;;;;;54.17;29.67;;;11.50;82.20;;;;;;5038898;28;20386;-48
2022/03/30 07:16:23;;;;;;;53.60;30.42;;;11.50;82.20;;;;;;5038827;28;20084;-48
2022/03/30 07:18:50;;;;;;;56.65;28.65;;;11.60;81.50;;;;;;5038798;28;20037;-50
2022/03/30 07:21:16;;;;;;;52.35;27.88;;;11.70;81.10;;;;;;5038481;28;20021;-50
2022/03/30 07:23:42;;;;;;;53.00;29.83;;;11.70;80.90;;;;;;5038190;28;20033;-49
2022/03/30 07:26:08;;;;;;;55.65;29.90;;;11.80;80.50;;;;;;5038289;28;20045;-49
2022/03/30 07:28:37;;;;;;;52.13;28.70;;;11.90;80.30;;;;;;5038759;28;20028;-47
2022/03/30 07:31:03;;;;;;;51.75;28.48;;;11.90;79.90;;;;;;5038107;28;20047;-50
2022/03/30 07:33:32;;;;;;;52.03;29.23;;;12.00;79.70;;;;;;5038231;28;20040;-52
2022/03/30 07:35:58;;;;;;;55.35;29.60;;;12.00;80.20;;;;;;5038461;28;20025;-49
2022/03/30 07:38:24;;;;;;;55.75;30.75;;;12.10;80.00;;;;;;5037922;28;20048;-48
2022/03/30 07:40:50;;;;;;;50.92;30.08;;;12.20;79.60;;;;;;5036613;28;20034;-46
2022/03/30 07:43:18;;;;;;;55.05;28.63;;;12.30;79.00;;;;;;5038185;28;20116;-50
2022/03/30 07:45:44;;;;;;;53.65;29.02;;;12.30;78.90;;;;;;5037738;28;20030;-50
2022/03/30 07:48:10;;;;;;;54.58;29.10;;;12.40;77.80;;;;;;5037954;28;20041;-48
2022/03/30 07:50:36;;;;;;;53.55;29.88;;;12.40;78.00;;;;;;5038181;28;20021;-46
2022/03/30 07:53:04;;;;;;;50.97;29.17;;;12.40;77.70;;;;;;5037712;28;20073;-47
2022/03/30 07:55:30;;;;;;;55.08;29.20;;;12.50;77.60;;;;;;5037772;28;20374;-47
2022/03/30 07:57:56;;;;;;;56.40;28.95;;;12.50;77.40;;;;;;5038030;28;20024;-50
2022/03/30 08:00:22;;;;;;;53.08;28.75;;;12.60;76.80;;;;;;5037703;28;20025;-46
2022/03/30 08:02:49;;;;;;;52.50;29.23;;;12.60;76.40;;;;;;5038178;28;20030;-48
2022/03/30 08:05:16;;;;;;;51.25;29.67;;;12.70;76.90;;;;;;5037827;28;20025;-50
2022/03/30 08:07:49;;;;;;;52.00;27.98;;;12.70;75.10;;;;;;5037794;28;20021;-47
2022/03/30 08:10:15;;;;;;;53.35;28.65;;;12.70;76.50;;;;;;5038101;28;20017;-49
2022/03/30 08:12:41;;;;;;;52.67;28.13;;;12.80;75.80;;;;;;5037800;28;20046;-52
2022/03/30 08:15:08;;;;;;;54.33;28.15;;;12.90;76.80;;;;;;5037498;28;20436;-50
2022/03/30 08:17:37;;;;;;;50.92;28.02;;;13.00;76.30;;;;;;5037342;28;20029;-46
2022/03/30 08:20:04;;;;;;;52.33;27.98;;;13.20;74.90;;;;;;5037745;28;20140;-48
2022/03/30 08:22:30;;;;;;;47.95;26.70;;;13.30;74.60;;;;;;5037811;28;20037;-46
2022/03/30 08:25:01;;;;;;;51.28;29.00;;;13.50;74.20;;;;;;5037337;28;20076;-47
2022/03/30 08:27:30;;;;;;;48.92;27.17;;;13.70;75.00;;;;;;5037779;28;20019;-49
2022/03/30 08:29:57;;;;;;;45.05;26.80;;;13.80;73.30;;;;;;5037010;28;20515;-49
2022/03/30 08:32:23;;;;;;;48.65;28.67;;;13.80;72.10;;;;;;5037572;28;20017;-54
2022/03/30 08:34:52;;;;;;;50.47;27.10;;;13.80;71.20;;;;;;5037246;28;20028;-49
2022/03/30 08:37:18;;;;;;;50.08;28.63;;;13.80;69.40;;;;;;5035915;28;20033;-49
2022/03/30 08:39:44;;;;;;;51.20;27.80;;;13.70;70.50;;;;;;5037231;28;20501;-50
2022/03/30 08:42:13;;;;;;;49.03;28.23;;;13.70;70.40;;;;;;5037516;28;20071;-50
2022/03/30 08:44:41;;;;;;;47.30;28.38;;;13.70;70.60;;;;;;5036991;28;20509;-50
2022/03/30 08:47:08;;;;;;;55.45;28.30;;;13.70;70.00;;;;;;5037065;28;20052;-48
2022/03/30 08:49:35;;;;;;;52.17;28.73;;;13.60;70.60;;;;;;5037395;28;20077;-51
2022/03/30 08:52:07;;;;;;;51.10;29.98;;;13.60;71.30;;;;;;5037089;28;20041;-48
2022/03/30 08:54:34;;;;;;;55.05;30.08;;;13.60;71.10;;;;;;5037293;28;20045;-49
2022/03/30 08:57:01;;;;;;;51.47;28.02;;;13.60;72.00;;;;;;5037243;28;20828;-52
2022/03/30 08:59:27;;;;;;;51.55;28.50;;;13.60;70.60;;;;;;5037133;28;20026;-47
2022/03/30 09:01:54;;;;;;;50.13;29.00;;;13.60;72.40;;;;;;5037013;28;20026;-47
2022/03/30 09:04:21;;;;;;;49.33;27.58;;;13.70;72.30;;;;;;5036693;28;20523;-49
2022/03/30 09:06:55;;;;;;;53.13;29.23;;;13.70;71.00;;;;;;5035683;28;20029;-49
2022/03/30 09:09:31;;;;;;;51.17;28.00;;;13.80;71.70;;;;;;5036972;28;20080;-50
2022/03/30 09:11:59;;;;;;;51.58;28.48;;;13.90;72.70;;;;;;5037153;28;20517;-50
2022/03/30 09:14:30;;;;;;;50.28;27.30;;;13.90;72.40;;;;;;5037018;28;20022;-49
2022/03/30 09:16:59;;;;;;;48.83;27.00;;;14.00;71.40;;;;;;5035569;28;20041;-50
2022/03/30 09:19:27;;;;;;;50.50;29.15;;;14.10;71.70;;;;;;5036800;28;20505;-51
2022/03/30 09:21:58;;;;;;;49.72;30.17;;;14.10;72.20;;;;;;5037020;28;20432;-51
2022/03/30 09:24:33;;;;;;;50.75;28.45;;;14.20;71.10;;;;;;5037066;28;20477;-49
2022/03/30 09:27:00;;;;;;;48.47;28.30;;;14.20;69.70;;;;;;5037485;28;20040;-50
2022/03/30 09:29:32;;;;;;;47.63;28.10;;;14.20;71.40;;;;;;5040475;28;20026;-53
2022/03/30 09:32:02;;;;;;;49.35;28.58;;;14.20;70.10;;;;;;5040433;28;20047;-49
2022/03/30 09:34:35;;;;;;;54.25;29.48;;;14.10;70.90;;;;;;5040458;28;20492;-48
2022/03/30 09:37:02;;;;;;;50.47;28.00;;;14.10;70.10;;;;;;5040632;28;20060;-53
2022/03/30 09:39:32;;;;;;;51.17;27.92;;;14.10;70.70;;;;;;5040531;28;20112;-50
2022/03/30 09:41:59;;;;;;;48.92;27.60;;;14.10;71.40;;;;;;5040095;28;20029;-51
2022/03/30 09:44:27;;;;;;;46.45;26.98;;;14.10;71.90;;;;;;5040054;28;20481;-47
2022/03/30 09:47:03;;;;;;;46.10;27.60;;;14.00;71.10;;;;;;5040073;28;20021;-51
2022/03/30 09:49:38;;;;;;;49.45;26.98;;;14.00;70.60;;;;;;5040182;28;20031;-49
2022/03/30 09:52:14;;;;;;;45.35;27.00;;;14.00;70.60;;;;;;5040193;28;20022;-50
2022/03/30 09:54:53;;;;;;;46.40;27.42;;;14.00;69.60;;;;;;5040269;28;20468;-47
2022/03/30 09:57:24;;;;;;;46.05;26.98;;;14.00;68.30;;;;;;5039891;28;20022;-51
2022/03/30 10:00:18;;;;;;;45.20;26.52;;;14.10;69.30;;;;;;5040300;28;20370;-49
2022/03/30 10:02:52;;;;;;;49.35;26.50;;;14.10;70.50;;;;;;5039970;28;20444;-50
2022/03/30 10:05:23;;;;;;;44.03;26.23;;;14.20;69.90;;;;;;5039818;28;20026;-49
2022/03/30 10:07:49;;;;;;;42.90;25.30;;;14.30;69.40;;;;;;5040042;28;20014;-47
2022/03/30 10:10:19;;;;;;;44.55;26.83;;;14.30;67.90;;;;;;5039796;28;20022;-51
2022/03/30 10:12:45;;;;;;;39.03;24.20;;;14.40;69.00;;;;;;5039519;28;20074;-51
2022/03/30 10:15:12;;;;;;;45.63;26.05;;;14.40;68.80;;;;;;5039508;28;20100;-49
2022/03/30 10:17:38;;;;;;;44.15;25.30;;;14.40;69.90;;;;;;5039205;28;20450;-52
2022/03/30 10:20:07;;;;;;;44.20;25.30;;;14.40;69.10;;;;;;5039578;28;20025;-48
2022/03/30 10:23:08;;;;;;;42.38;26.92;;;14.40;68.50;;;;;;5039185;28;20026;-52
2022/03/30 10:25:58;;;;;;;47.25;26.70;;;14.40;68.20;;;;;;5038757;28;20042;-51
2022/03/30 10:28:44;;;;;;;48.60;27.65;;;14.30;66.40;;;;;;5039648;28;20397;-52
2022/03/30 10:31:11;;;;;;;44.05;26.60;;;14.30;67.30;;;;;;5039193;28;20096;-50
2022/03/30 10:33:42;;;;;;;44.08;27.73;;;14.30;67.50;;;;;;5039548;28;20064;-51
2022/03/30 10:36:29;;;;;;;40.50;25.55;;;14.40;68.30;;;;;;5039109;28;20077;-48
2022/03/30 10:39:14;;;;;;;41.53;25.08;;;14.40;68.70;;;;;;5038835;28;20030;-47
2022/03/30 10:42:03;;;;;;;43.80;26.10;;;14.30;68.20;;;;;;5039217;28;20041;-50
2022/03/30 10:44:35;;;;;;;43.78;24.35;;;14.30;69.40;;;;;;5039411;28;20044;-51
2022/03/30 10:47:12;;;;;;;46.55;26.33;;;14.30;68.30;;;;;;5038921;28;20029;-51
2022/03/30 10:50:00;;;;;;;46.03;26.20;;;14.20;67.60;;;;;;5039277;28;20386;-52
2022/03/30 10:52:40;;;;;;;42.35;25.15;;;14.20;68.70;;;;;;5038936;28;20493;-50
2022/03/30 10:55:12;;;;;;;48.75;28.00;;;14.20;68.00;;;;;;5039026;28;20029;-52
2022/03/30 10:57:49;;;;;;;46.38;25.48;;;14.20;68.00;;;;;;5039301;28;20032;-50
2022/03/30 11:00:30;;;;;;;44.92;25.05;;;14.20;68.00;;;;;;5038755;28;20528;-50
2022/03/30 11:03:25;;;;;;;45.08;25.90;;;14.20;68.70;;;;;;5038603;28;20056;-50
2022/03/30 11:06:02;;;;;;;46.72;26.20;;;14.30;69.30;;;;;;5038709;28;20029;-52
2022/03/30 11:08:34;;;;;;;46.40;26.63;;;14.30;68.60;;;;;;5038604;28;20040;-48
2022/03/30 11:11:04;;;;;;;44.90;25.40;;;14.30;68.20;;;;;;5038775;28;20037;-48
2022/03/30 11:13:30;;;;;;;44.83;26.25;;;14.30;69.10;;;;;;5038794;28;20025;-50
2022/03/30 11:16:07;;;;;;;47.03;26.60;;;14.30;68.00;;;;;;5038993;28;20032;-48
2022/03/30 11:18:35;;;;;;;43.83;26.30;;;14.30;69.20;;;;;;5038676;28;20030;-49
2022/03/30 11:21:13;;;;;;;46.25;27.60;;;14.30;69.70;;;;;;5038285;28;20061;-51
2022/03/30 11:23:39;;;;;;;52.78;27.83;;;14.20;69.10;;;;;;5038274;28;20108;-53
2022/03/30 11:26:05;;;;;;;45.53;26.45;;;14.20;69.80;;;;;;5038246;28;20471;-52
2022/03/30 11:28:40;;;;;;;45.40;25.70;;;14.10;68.70;;;;;;5038252;28;20026;-51
2022/03/30 11:31:26;;;;;;;46.72;27.02;;;14.10;69.30;;;;;;5038433;28;20403;-47
2022/03/30 11:34:40;;;;;;;47.03;27.58;;;14.10;69.00;;;;;;5038039;28;20041;-49
2022/03/30 11:37:08;;;;;;;45.88;28.98;;;14.10;69.10;;;;;;5037858;28;20041;-52
2022/03/30 11:39:34;;;;;;;47.97;30.35;;;14.10;70.00;;;;;;5038090;28;20032;-52
2022/03/30 11:42:00;;;;;;;45.95;29.85;;;14.10;69.90;;;;;;5038216;28;20029;-49
2022/03/30 11:47:16;;;;;;;44.88;26.52;;;14.20;70.00;;;;;;5038381;28;20028;-49
2022/03/30 11:49:52;;;;;;;43.83;25.17;;;14.30;69.60;;;;;;5037738;28;20436;-50
2022/03/30 11:52:19;;;;;;;40.53;25.75;;;14.30;69.50;;;;;;5037353;28;20377;-49
2022/03/30 11:54:49;;;;;;;40.38;24.52;;;14.30;69.10;;;;;;5038287;28;20024;-51
2022/03/30 11:57:17;;;;;;;45.38;30.08;;;14.30;69.20;;;;;;5038067;28;20041;-53
2022/03/30 11:59:52;;;;;;;42.42;25.88;;;14.30;69.80;;;;;;5037838;28;20028;-51
2022/03/30 12:02:19;;;;;;;36.45;23.27;;;14.30;69.60;;;;;;5037949;28;20025;-48
2022/03/30 12:04:45;;;;;;;39.15;23.50;;;14.20;69.70;;;;;;5037965;28;20028;-49
2022/03/30 12:07:14;;;;;;;37.15;22.38;;;14.20;70.30;;;;;;5037912;28;20021;-47
2022/03/30 12:09:48;;;;;;;41.30;29.42;;;14.20;71.00;;;;;;5037552;28;20155;-49
2022/03/30 12:12:38;;;;;;;44.63;31.35;;;14.10;71.50;;;;;;5037639;28;20036;-47
2022/03/30 12:15:07;;;;;;;38.70;26.88;;;14.10;72.10;;;;;;5037004;28;20398;-49
2022/03/30 12:17:34;;;;;;;37.67;21.10;;;14.10;72.50;;;;;;5036150;28;20033;-50
2022/03/30 12:20:01;;;;;;;34.92;21.58;;;14.00;73.20;;;;;;5037869;28;20052;-46
2022/03/30 12:22:30;;;;;;;37.80;21.88;;;14.00;74.10;;;;;;5037623;28;20033;-52
2022/03/30 12:24:56;;;;;;;34.28;23.55;;;14.00;73.60;;;;;;5037193;28;20045;-48
2022/03/30 12:27:23;;;;;;;35.28;22.27;;;14.10;74.20;;;;;;5037567;28;20032;-47
2022/03/30 12:29:49;;;;;;;38.92;23.17;;;14.10;73.60;;;;;;5037218;28;20496;-47
2022/03/30 12:32:15;;;;;;;36.20;21.63;;;14.20;74.10;;;;;;5037467;28;20056;-50
2022/03/30 12:34:47;;;;;;;39.70;22.73;;;14.30;74.10;;;;;;5035818;28;20025;-51
2022/03/30 12:37:21;;;;;;;40.65;23.48;;;14.40;73.70;;;;;;5037234;28;20509;-48
2022/03/30 12:39:47;;;;;;;40.38;23.73;;;14.50;73.60;;;;;;5037250;28;20026;-51
2022/03/30 12:42:25;;;;;;;40.63;24.20;;;14.60;72.80;;;;;;5037092;28;20034;-51
2022/03/30 12:44:56;;;;;;;47.13;25.77;;;14.70;72.60;;;;;;5037167;28;20060;-48